Time;durP1;ratioP1;P1;durP2;ratioP2;P2;SDS_P1;SDS_P2;PMS_P1;PMS_P2;Temp;Humidity;BMP_temperature;BMP_pressure;BME280_temperature;BME280_humidity;BME280_pressure;Samples;Min_cycle;Max_cycle;Signal;HPM_P1;HPM_P2
2020/12/11 00:00:06;;;;;;;40.47;19.20;;;-0.20;99.90;;;;;;5032909;28;20430;-74
2020/12/11 00:02:35;;;;;;;51.07;19.87;;;-0.20;99.90;;;;;;5032830;28;20594;-73
2020/12/11 00:05:05;;;;;;;47.17;21.03;;;-0.20;99.90;;;;;;5032682;28;20431;-76
2020/12/11 00:07:35;;;;;;;49.30;19.43;;;-0.20;99.90;;;;;;5031306;28;20779;-74
2020/12/11 00:10:01;;;;;;;38.83;16.20;;;-0.20;99.90;;;;;;5015928;28;512954;-74
2020/12/11 00:12:26;;;;;;;42.33;18.57;;;-0.20;99.90;;;;;;5033613;28;20414;-75
2020/12/11 00:14:52;;;;;;;33.90;16.50;;;-0.20;99.90;;;;;;5033596;28;20417;-74
2020/12/11 00:17:17;;;;;;;45.80;19.60;;;-0.20;99.90;;;;;;5033310;28;20175;-76
2020/12/11 00:19:43;;;;;;;37.63;17.03;;;-0.10;99.90;;;;;;5033461;28;20223;-74
2020/12/11 00:22:14;;;;;;;37.30;19.27;;;-0.20;99.90;;;;;;5033741;28;20634;-75
2020/12/11 00:24:40;;;;;;;45.70;19.87;;;-0.20;99.90;;;;;;5033533;28;20655;-74
2020/12/11 00:27:06;;;;;;;42.87;18.47;;;-0.20;99.90;;;;;;5033255;28;20906;-74
2020/12/11 00:29:31;;;;;;;50.00;19.20;;;-0.20;99.90;;;;;;5033279;28;20484;-74
2020/12/11 00:32:01;;;;;;;43.27;21.50;;;-0.10;99.90;;;;;;5033228;28;20643;-74
2020/12/11 00:34:26;;;;;;;46.93;21.40;;;-0.10;99.90;;;;;;5033162;28;20171;-74
2020/12/11 00:36:52;;;;;;;45.87;18.60;;;-0.20;99.90;;;;;;5033171;28;20883;-73
2020/12/11 00:39:17;;;;;;;44.17;18.00;;;-0.10;99.90;;;;;;5032138;28;20203;-75
2020/12/11 00:41:43;;;;;;;49.77;22.53;;;-0.10;99.90;;;;;;5033257;28;20163;-75
2020/12/11 00:44:08;;;;;;;46.27;19.70;;;-0.20;99.90;;;;;;5033041;28;20206;-74
2020/12/11 00:46:33;;;;;;;47.17;19.70;;;-0.20;99.90;;;;;;5032819;28;20179;-74
2020/12/11 00:48:59;;;;;;;45.00;17.47;;;-0.20;99.90;;;;;;5033145;28;20735;-75
2020/12/11 00:51:24;;;;;;;41.93;18.70;;;-0.20;99.90;;;;;;5032874;28;20209;-74
2020/12/11 00:53:50;;;;;;;47.00;20.00;;;-0.20;99.90;;;;;;5033001;28;20217;-75
2020/12/11 00:56:15;;;;;;;52.93;22.37;;;-0.20;99.90;;;;;;5033088;28;20184;-74
2020/12/11 00:58:41;;;;;;;53.70;19.90;;;-0.30;99.90;;;;;;5032723;28;20265;-74
2020/12/11 01:01:06;;;;;;;47.20;22.03;;;-0.20;99.90;;;;;;5032703;28;20709;-74
2020/12/11 01:03:32;;;;;;;46.43;18.37;;;-0.20;99.90;;;;;;5032726;28;20168;-74
2020/12/11 01:05:57;;;;;;;37.83;18.50;;;-0.20;99.90;;;;;;5032764;28;20516;-74
2020/12/11 01:08:23;;;;;;;43.33;19.90;;;-0.10;99.90;;;;;;5032310;28;20211;-75
2020/12/11 01:10:48;;;;;;;59.27;20.20;;;-0.20;99.90;;;;;;5032561;28;20195;-74
2020/12/11 01:13:14;;;;;;;56.50;22.97;;;-0.30;99.90;;;;;;5032508;28;20170;-74
2020/12/11 01:15:39;;;;;;;45.30;21.30;;;-0.30;99.90;;;;;;5032383;28;20172;-74
2020/12/11 01:18:04;;;;;;;40.43;21.60;;;-0.30;99.90;;;;;;5032540;28;20215;-74
2020/12/11 01:20:30;;;;;;;47.90;20.80;;;-0.30;99.90;;;;;;5033529;28;20578;-74
2020/12/11 01:22:55;;;;;;;42.50;20.37;;;-0.20;99.90;;;;;;5031811;28;20262;-74
2020/12/11 01:25:21;;;;;;;53.43;24.37;;;-0.20;99.90;;;;;;5032352;28;20190;-74
2020/12/11 01:27:46;;;;;;;65.57;21.40;;;-0.20;99.90;;;;;;5032382;28;20695;-74
2020/12/11 01:30:12;;;;;;;44.23;20.00;;;-0.20;99.90;;;;;;5032209;28;20197;-75
2020/12/11 01:32:37;;;;;;;44.47;18.90;;;-0.20;99.90;;;;;;5032444;28;20657;-74
2020/12/11 01:35:03;;;;;;;48.57;18.63;;;-0.30;99.90;;;;;;5032296;28;20603;-74
2020/12/11 01:37:28;;;;;;;37.13;18.43;;;-0.30;99.90;;;;;;5032313;28;20263;-74
2020/12/11 01:39:54;;;;;;;42.03;18.27;;;-0.30;99.90;;;;;;5032078;28;20183;-75
2020/12/11 01:42:19;;;;;;;39.37;18.27;;;-0.30;99.90;;;;;;5032077;28;20171;-74
2020/12/11 01:44:49;;;;;;;44.23;18.23;;;-0.20;99.90;;;;;;5032033;28;20171;-73
2020/12/11 01:47:16;;;;;;;41.57;17.57;;;-0.20;99.90;;;;;;5031824;28;20178;-74
2020/12/11 01:49:42;;;;;;;46.60;18.60;;;-0.10;99.90;;;;;;5031689;28;20414;-73
2020/12/11 01:52:09;;;;;;;47.17;18.33;;;-0.20;99.90;;;;;;5032094;28;20457;-75
2020/12/11 01:54:34;;;;;;;48.60;20.87;;;-0.10;99.90;;;;;;5032004;28;20891;-74
2020/12/11 01:57:04;;;;;;;39.30;17.03;;;-0.20;99.90;;;;;;5031797;28;20428;-74
2020/12/11 01:59:35;;;;;;;45.83;18.90;;;-0.20;99.90;;;;;;5031693;28;20548;-75
2020/12/11 02:02:03;;;;;;;39.60;18.60;;;-0.10;99.90;;;;;;5032712;28;20482;-75
2020/12/11 02:04:34;;;;;;;42.73;17.10;;;-0.20;99.90;;;;;;5032092;28;20387;-75
2020/12/11 02:07:00;;;;;;;42.77;16.73;;;-0.20;99.90;;;;;;5031945;28;20474;-75
2020/12/11 02:09:26;;;;;;;36.93;19.07;;;-0.20;99.90;;;;;;5032112;28;20596;-75
2020/12/11 02:11:54;;;;;;;35.57;16.57;;;-0.20;99.90;;;;;;5032139;28;20247;-74
2020/12/11 02:14:20;;;;;;;48.23;23.10;;;-0.10;99.90;;;;;;5031767;28;20833;-75
2020/12/11 02:16:45;;;;;;;41.33;18.77;;;-0.20;99.90;;;;;;5031563;28;20444;-75
2020/12/11 02:19:12;;;;;;;42.00;19.57;;;-0.20;99.90;;;;;;5031607;28;20287;-74
2020/12/11 02:21:38;;;;;;;42.83;20.27;;;-0.20;99.90;;;;;;5031733;28;20163;-74
2020/12/11 02:24:03;;;;;;;45.30;21.63;;;-0.20;99.90;;;;;;5031562;28;20405;-74
2020/12/11 02:26:28;;;;;;;54.60;21.80;;;-0.10;99.90;;;;;;5031553;28;20183;-74
2020/12/11 02:28:54;;;;;;;45.53;20.40;;;-0.10;99.90;;;;;;5031571;28;20214;-75
2020/12/11 02:31:19;;;;;;;47.43;21.53;;;-0.20;99.90;;;;;;5031614;28;20660;-74
2020/12/11 02:33:45;;;;;;;48.83;21.53;;;-0.20;99.90;;;;;;5031489;28;20254;-74
2020/12/11 02:36:10;;;;;;;51.53;22.10;;;-0.20;99.90;;;;;;5031500;28;20655;-74
2020/12/11 02:38:36;;;;;;;46.07;22.03;;;-0.20;99.90;;;;;;5031328;28;20233;-74
2020/12/11 02:41:02;;;;;;;55.57;21.73;;;-0.20;99.90;;;;;;5031567;28;20168;-74
2020/12/11 02:43:37;;;;;;;41.33;19.33;;;-0.20;99.90;;;;;;5031536;28;20574;-74
2020/12/11 02:46:05;;;;;;;44.40;21.87;;;-0.10;99.90;;;;;;5031442;28;20465;-74
2020/12/11 02:48:32;;;;;;;44.00;18.53;;;-0.20;99.90;;;;;;5031259;28;20422;-74
2020/12/11 02:50:58;;;;;;;48.97;18.53;;;-0.20;99.90;;;;;;5031301;28;20412;-74
2020/12/11 02:53:25;;;;;;;43.07;19.20;;;-0.20;99.90;;;;;;5031345;28;20413;-75
2020/12/11 02:55:51;;;;;;;39.97;19.67;;;-0.20;99.90;;;;;;5031328;28;20494;-74
2020/12/11 02:58:16;;;;;;;50.23;19.07;;;-0.30;99.90;;;;;;5031092;28;20562;-74
2020/12/11 03:00:42;;;;;;;40.80;16.67;;;-0.20;99.90;;;;;;5031416;28;20690;-74
2020/12/11 03:03:07;;;;;;;38.33;17.57;;;-0.20;99.90;;;;;;5034665;28;20168;-74
2020/12/11 03:05:33;;;;;;;51.27;18.73;;;-0.20;99.90;;;;;;5034816;28;20250;-74
2020/12/11 03:07:58;;;;;;;48.73;19.87;;;-0.10;99.90;;;;;;5034545;28;20191;-74
2020/12/11 03:10:24;;;;;;;39.67;18.33;;;-0.10;99.90;;;;;;5034876;28;20641;-74
2020/12/11 03:12:49;;;;;;;39.83;17.00;;;-0.10;99.90;;;;;;5034745;28;20709;-74
2020/12/11 03:15:15;;;;;;;47.30;20.70;;;-0.10;99.90;;;;;;5034980;28;20190;-74
2020/12/11 03:17:40;;;;;;;52.63;21.33;;;-0.10;99.90;;;;;;5034449;28;20237;-74
2020/12/11 03:20:06;;;;;;;39.67;16.17;;;-0.10;99.90;;;;;;5034987;28;20574;-74
2020/12/11 03:22:31;;;;;;;35.90;19.10;;;-0.10;99.90;;;;;;5035122;28;20175;-74
2020/12/11 03:24:57;;;;;;;44.83;17.00;;;-0.10;99.90;;;;;;5033425;28;20637;-75
2020/12/11 03:27:22;;;;;;;41.70;18.83;;;-0.10;99.90;;;;;;5036088;28;20195;-75
2020/12/11 03:29:48;;;;;;;50.10;19.50;;;-0.10;99.90;;;;;;5036261;28;20187;-75
2020/12/11 03:32:13;;;;;;;47.00;18.97;;;-0.10;99.90;;;;;;5034644;28;20171;-75
2020/12/11 03:34:38;;;;;;;45.90;18.97;;;-0.10;99.90;;;;;;5034421;28;20287;-74
2020/12/11 03:37:04;;;;;;;45.20;19.77;;;-0.10;99.90;;;;;;5034274;28;20178;-75
2020/12/11 03:39:29;;;;;;;49.87;19.97;;;0.00;99.90;;;;;;5034537;28;20546;-75
2020/12/11 03:41:55;;;;;;;43.20;18.00;;;-0.10;99.90;;;;;;5034333;28;20213;-74
2020/12/11 03:44:21;;;;;;;53.03;21.10;;;-0.10;99.90;;;;;;5034471;28;20218;-74
2020/12/11 03:46:47;;;;;;;47.87;18.97;;;0.00;99.90;;;;;;5034413;28;20686;-75
2020/12/11 03:49:12;;;;;;;47.47;21.10;;;0.00;99.90;;;;;;5034256;28;20426;-75
2020/12/11 03:51:38;;;;;;;47.43;19.33;;;-0.10;99.90;;;;;;5034016;28;20180;-74
2020/12/11 03:54:04;;;;;;;40.63;21.00;;;-0.10;99.90;;;;;;5034025;28;20183;-73
2020/12/11 03:56:29;;;;;;;46.63;19.23;;;-0.10;99.90;;;;;;5033928;28;20168;-74
2020/12/11 03:58:55;;;;;;;46.60;20.63;;;0.00;99.90;;;;;;5033875;28;20680;-75
2020/12/11 04:01:21;;;;;;;51.53;22.10;;;0.00;99.90;;;;;;5035769;28;20225;-75
2020/12/11 04:03:47;;;;;;;51.37;21.23;;;0.00;99.90;;;;;;5035386;28;20175;-75
2020/12/11 04:06:14;;;;;;;46.43;22.30;;;-0.10;99.90;;;;;;5033712;28;20536;-75
2020/12/11 04:08:41;;;;;;;43.00;20.70;;;-0.10;99.90;;;;;;5033474;28;20446;-75
2020/12/11 04:11:08;;;;;;;45.87;19.73;;;-0.10;99.90;;;;;;5033592;28;20406;-74
2020/12/11 04:13:35;;;;;;;37.77;17.73;;;-0.20;99.90;;;;;;5033437;28;20445;-74
2020/12/11 04:16:00;;;;;;;47.20;19.53;;;-0.20;99.90;;;;;;5033651;28;20937;-74
2020/12/11 04:18:26;;;;;;;36.87;18.50;;;-0.10;99.90;;;;;;5033335;28;20454;-74
2020/12/11 04:20:52;;;;;;;29.87;15.10;;;-0.10;99.90;;;;;;5033481;28;20438;-74
2020/12/11 04:23:18;;;;;;;46.73;19.23;;;-0.20;99.90;;;;;;5033647;28;20473;-75
2020/12/11 04:25:44;;;;;;;44.30;18.30;;;-0.20;99.90;;;;;;5033456;28;20409;-75
2020/12/11 04:28:09;;;;;;;38.90;18.80;;;-0.20;99.90;;;;;;5033256;28;20178;-75
2020/12/11 04:30:34;;;;;;;42.23;16.53;;;-0.20;99.90;;;;;;5033364;28;20176;-75
2020/12/11 04:33:00;;;;;;;40.83;17.57;;;-0.20;99.90;;;;;;5033162;28;20178;-75
2020/12/11 04:35:25;;;;;;;35.77;16.73;;;-0.20;99.90;;;;;;5033412;28;20184;-74
2020/12/11 04:37:51;;;;;;;39.10;17.17;;;-0.20;99.90;;;;;;5033010;28;20234;-75
2020/12/11 04:40:17;;;;;;;38.37;21.30;;;-0.20;99.90;;;;;;5033352;28;20203;-73
2020/12/11 04:42:45;;;;;;;49.93;21.90;;;-0.20;99.90;;;;;;5033483;28;20172;-74
2020/12/11 04:45:11;;;;;;;33.00;17.20;;;-0.20;99.90;;;;;;5033354;28;20966;-75
2020/12/11 04:47:41;;;;;;;44.30;22.03;;;-0.30;99.90;;;;;;5033500;28;20406;-74
2020/12/11 04:50:07;;;;;;;36.60;17.70;;;-0.30;99.90;;;;;;5033904;28;20430;-74
2020/12/11 04:52:36;;;;;;;39.17;19.23;;;-0.20;99.90;;;;;;5034416;28;20510;-75
2020/12/11 04:55:02;;;;;;;39.40;17.30;;;-0.10;99.90;;;;;;5034333;28;20262;-75
2020/12/11 04:57:31;;;;;;;38.53;17.30;;;-0.20;99.90;;;;;;5034384;28;20417;-75
2020/12/11 04:59:57;;;;;;;42.53;18.47;;;-0.20;99.90;;;;;;5034044;28;20509;-74
2020/12/11 05:02:26;;;;;;;40.97;17.80;;;-0.20;99.90;;;;;;5033888;28;20509;-75
2020/12/11 05:04:53;;;;;;;39.80;21.30;;;-0.10;99.90;;;;;;5033694;28;20172;-75
2020/12/11 05:07:19;;;;;;;42.73;19.63;;;-0.10;99.90;;;;;;5033824;28;20408;-75
2020/12/11 05:09:55;;;;;;;45.20;20.47;;;-0.10;99.90;;;;;;5033417;28;20532;-75
2020/12/11 05:12:20;;;;;;;47.43;19.80;;;-0.20;99.90;;;;;;5034221;28;20625;-75
2020/12/11 05:14:46;;;;;;;36.73;18.67;;;-0.20;99.90;;;;;;5031361;28;20438;-74
2020/12/11 05:17:11;;;;;;;52.20;21.00;;;-0.20;99.90;;;;;;5032284;28;20168;-74
2020/12/11 05:19:51;;;;;;;39.80;18.43;;;-0.10;99.90;;;;;;5032562;28;20253;-75
2020/12/11 05:22:18;;;;;;;37.10;17.67;;;-0.20;99.90;;;;;;5032450;28;20663;-74
2020/12/11 05:24:46;;;;;;;43.53;18.80;;;-0.10;99.90;;;;;;5032086;28;20891;-74
2020/12/11 05:27:39;;;;;;;35.50;18.30;;;-0.20;99.90;;;;;;5032269;28;20449;-74
2020/12/11 05:30:14;;;;;;;36.23;18.10;;;-0.10;99.90;;;;;;5032243;28;20423;-75
2020/12/11 05:32:47;;;;;;;37.83;18.60;;;-0.20;99.90;;;;;;5032318;28;20960;-74
2020/12/11 05:35:18;;;;;;;47.53;19.37;;;-0.20;99.90;;;;;;5032243;28;20399;-74
2020/12/11 05:38:06;;;;;;;43.90;21.43;;;-0.20;99.90;;;;;;5030623;28;20829;-74
2020/12/11 05:40:32;;;;;;;42.13;19.77;;;-0.30;99.90;;;;;;5032155;28;20402;-74
2020/12/11 05:43:17;;;;;;;48.07;22.67;;;-0.20;99.90;;;;;;5032327;28;20494;-74
2020/12/11 05:45:55;;;;;;;36.17;19.87;;;-0.20;99.90;;;;;;5032053;28;20398;-73
2020/12/11 05:48:23;;;;;;;39.70;19.10;;;-0.30;99.90;;;;;;5031975;28;20429;-74
2020/12/11 05:50:49;;;;;;;40.57;21.17;;;-0.20;99.90;;;;;;5031955;28;20405;-74
2020/12/11 05:53:14;;;;;;;35.53;16.90;;;-0.30;99.90;;;;;;5032120;28;20390;-74
2020/12/11 05:55:40;;;;;;;45.83;17.93;;;-0.30;99.90;;;;;;5031940;28;20246;-74
2020/12/11 05:58:08;;;;;;;34.53;17.97;;;-0.40;99.90;;;;;;5030294;28;20207;-74
2020/12/11 06:00:34;;;;;;;48.63;21.40;;;-0.40;99.90;;;;;;5032172;28;20168;-74
2020/12/11 06:03:01;;;;;;;36.10;19.90;;;-0.30;99.90;;;;;;5032016;28;20406;-73
2020/12/11 06:05:26;;;;;;;36.93;18.83;;;-0.30;99.90;;;;;;5031846;28;20199;-73
2020/12/11 06:07:52;;;;;;;40.33;19.03;;;-0.30;99.90;;;;;;5031555;28;20814;-74
2020/12/11 06:10:22;;;;;;;31.50;16.20;;;-0.30;99.90;;;;;;5031705;28;20221;-74
2020/12/11 06:12:49;;;;;;;38.00;19.40;;;-0.30;99.90;;;;;;5031818;28;20179;-74
2020/12/11 06:15:21;;;;;;;39.83;16.90;;;-0.20;99.90;;;;;;5031498;28;20890;-74
2020/12/11 06:18:08;;;;;;;41.97;18.43;;;-0.20;99.90;;;;;;5031432;28;20465;-73
2020/12/11 06:20:35;;;;;;;42.90;17.50;;;-0.20;99.90;;;;;;5031904;28;20887;-74
2020/12/11 06:23:26;;;;;;;38.93;20.37;;;-0.20;99.90;;;;;;5031575;28;20475;-73
2020/12/11 06:25:57;;;;;;;41.63;18.70;;;-0.20;99.90;;;;;;5031629;28;20409;-74
2020/12/11 06:28:38;;;;;;;42.67;19.40;;;-0.20;99.90;;;;;;5031485;28;20429;-73
2020/12/11 06:31:06;;;;;;;44.57;20.63;;;-0.20;99.90;;;;;;5031555;28;20438;-73
2020/12/11 06:33:33;;;;;;;42.63;19.73;;;-0.20;99.90;;;;;;5031773;28;20837;-74
2020/12/11 06:36:01;;;;;;;45.87;17.93;;;-0.20;99.90;;;;;;5031414;28;20808;-74
2020/12/11 06:38:51;;;;;;;47.90;19.53;;;-0.30;99.90;;;;;;5035628;28;20454;-75
2020/12/11 06:41:37;;;;;;;44.67;21.00;;;-0.20;99.90;;;;;;5037814;28;20489;-75
2020/12/11 06:44:09;;;;;;;38.23;21.87;;;-0.20;99.90;;;;;;5037153;28;20413;-75
2020/12/11 06:46:34;;;;;;;50.60;20.50;;;-0.30;99.90;;;;;;5035695;28;20406;-73
2020/12/11 06:49:14;;;;;;;46.50;18.70;;;-0.30;99.90;;;;;;5036911;28;20430;-75
2020/12/11 06:51:46;;;;;;;46.53;22.43;;;0.00;99.90;;;;;;5035402;28;20279;-74
2020/12/11 06:54:20;;;;;;;41.23;20.67;;;-0.10;99.90;;;;;;5035116;28;20425;-71
2020/12/11 06:56:51;;;;;;;40.80;22.20;;;-0.10;99.90;;;;;;5035830;28;20492;-74
2020/12/11 06:59:22;;;;;;;49.30;22.20;;;-0.10;99.90;;;;;;5033741;28;20501;-73
2020/12/11 07:01:48;;;;;;;35.43;18.17;;;-0.10;99.90;;;;;;5035446;28;20476;-77
2020/12/11 07:04:14;;;;;;;49.37;20.93;;;-0.20;99.90;;;;;;5035732;28;20410;-76
2020/12/11 07:06:46;;;;;;;43.20;21.13;;;-0.20;99.90;;;;;;5037085;28;20429;-73
2020/12/11 07:09:12;;;;;;;38.90;17.80;;;-0.10;99.90;;;;;;5034723;28;20211;-73
2020/12/11 07:11:37;;;;;;;50.73;22.30;;;-0.10;99.90;;;;;;5032736;28;20522;-73
2020/12/11 07:14:03;;;;;;;55.07;25.90;;;-0.20;99.90;;;;;;5034274;28;20178;-73
2020/12/11 07:16:28;;;;;;;59.93;22.77;;;-0.10;99.90;;;;;;5034698;28;20203;-74
2020/12/11 07:18:53;;;;;;;46.43;20.73;;;-0.10;99.90;;;;;;5034738;28;20450;-73
2020/12/11 07:21:27;;;;;;;45.90;20.10;;;0.00;99.90;;;;;;5034564;28;20179;-74
2020/12/11 07:23:53;;;;;;;48.53;23.60;;;0.00;99.90;;;;;;5034420;28;20182;-73
2020/12/11 07:26:18;;;;;;;48.13;21.00;;;0.40;99.90;;;;;;5034338;28;20403;-73
2020/12/11 07:28:44;;;;;;;52.57;19.70;;;0.20;99.90;;;;;;5030928;28;20523;-73
2020/12/11 07:31:12;;;;;;;44.10;21.00;;;0.10;99.90;;;;;;5014834;28;20176;-72
2020/12/11 07:33:38;;;;;;;44.43;21.10;;;0.20;99.90;;;;;;5014645;28;20168;-68
2020/12/11 07:36:04;;;;;;;44.03;21.80;;;0.10;99.90;;;;;;5014367;28;20903;-69
2020/12/11 07:38:31;;;;;;;44.90;20.30;;;0.40;99.90;;;;;;5014131;28;20667;-69
2020/12/11 07:40:58;;;;;;;46.07;21.10;;;0.70;99.90;;;;;;5013041;28;20502;-69
2020/12/11 07:43:24;;;;;;;51.40;20.83;;;0.50;99.90;;;;;;5014268;28;20907;-73
2020/12/11 07:45:50;;;;;;;47.83;23.30;;;0.40;99.90;;;;;;5017892;28;20398;-73
2020/12/11 07:48:16;;;;;;;50.00;21.33;;;0.40;99.90;;;;;;5033457;28;20437;-73
2020/12/11 07:50:42;;;;;;;43.13;19.50;;;0.20;99.90;;;;;;5033868;28;20195;-73
2020/12/11 07:53:08;;;;;;;41.13;19.70;;;0.10;99.90;;;;;;5033770;28;20655;-73
2020/12/11 07:55:34;;;;;;;43.17;18.80;;;0.10;99.90;;;;;;5033943;28;20172;-73
2020/12/11 07:58:01;;;;;;;43.83;20.93;;;0.20;99.90;;;;;;5049024;28;20454;-73
2020/12/11 08:00:27;;;;;;;40.50;19.33;;;0.20;99.90;;;;;;5034557;28;20584;-73
2020/12/11 08:02:57;;;;;;;43.63;19.73;;;0.20;99.90;;;;;;5034050;28;20403;-73
2020/12/11 08:05:23;;;;;;;51.43;22.50;;;0.10;99.90;;;;;;5033729;28;20698;-73
2020/12/11 08:07:53;;;;;;;49.67;22.47;;;0.10;99.90;;;;;;5033464;28;20410;-73
2020/12/11 08:10:21;;;;;;;40.80;19.27;;;0.10;99.90;;;;;;5033756;28;20454;-73
2020/12/11 08:12:48;;;;;;;43.53;20.10;;;0.10;99.90;;;;;;5033550;28;20403;-73
2020/12/11 08:15:30;;;;;;;46.73;21.87;;;0.10;99.90;;;;;;5033630;28;20414;-73
2020/12/11 08:18:21;;;;;;;41.20;19.60;;;0.00;99.90;;;;;;5033395;28;21012;-73
2020/12/11 08:20:50;;;;;;;47.67;20.20;;;0.00;99.90;;;;;;5048966;28;20441;-73
2020/12/11 08:23:23;;;;;;;44.43;20.57;;;-0.10;99.90;;;;;;5033369;28;20402;-71
2020/12/11 08:26:07;;;;;;;41.13;20.00;;;0.00;99.90;;;;;;5033629;28;20437;-73
2020/12/11 08:28:33;;;;;;;48.57;20.97;;;0.00;99.90;;;;;;5031793;28;20512;-73
2020/12/11 08:31:12;;;;;;;40.10;20.60;;;-0.10;99.90;;;;;;5033080;28;20608;-73
2020/12/11 08:33:37;;;;;;;40.40;22.50;;;-0.10;99.90;;;;;;5033228;28;20250;-73
2020/12/11 08:36:03;;;;;;;42.67;20.83;;;0.00;99.90;;;;;;5033154;28;20489;-73
2020/12/11 08:38:28;;;;;;;46.90;22.40;;;0.00;99.90;;;;;;5032918;28;20211;-73
2020/12/11 08:40:54;;;;;;;38.80;19.80;;;0.00;99.90;;;;;;5031920;28;20184;-73
2020/12/11 08:43:30;;;;;;;51.87;24.80;;;0.10;99.90;;;;;;5033100;28;20168;-71
2020/12/11 08:46:15;;;;;;;48.90;21.80;;;0.20;99.90;;;;;;5033556;28;20239;-73
2020/12/11 08:49:12;;;;;;;40.43;19.17;;;0.20;99.90;;;;;;5032936;28;20414;-73
2020/12/11 08:51:38;;;;;;;33.90;18.47;;;0.20;99.90;;;;;;5033089;28;20468;-76
2020/12/11 08:54:06;;;;;;;38.37;20.10;;;0.20;99.90;;;;;;5033100;28;20399;-76
2020/12/11 08:56:32;;;;;;;40.53;20.70;;;0.30;99.90;;;;;;5032509;28;20167;-73
2020/12/11 08:58:57;;;;;;;46.77;21.23;;;0.20;99.90;;;;;;5031741;28;20945;-73
2020/12/11 09:01:23;;;;;;;46.07;22.27;;;0.30;99.90;;;;;;5032620;28;20171;-73
2020/12/11 09:03:48;;;;;;;42.90;20.80;;;0.20;99.90;;;;;;5032595;28;20231;-73
2020/12/11 09:06:14;;;;;;;33.33;18.40;;;0.20;99.90;;;;;;5032354;28;20175;-72
2020/12/11 09:08:39;;;;;;;42.27;21.33;;;0.30;99.90;;;;;;5032276;28;20203;-74
2020/12/11 09:11:05;;;;;;;41.50;20.37;;;0.30;99.90;;;;;;5032455;28;20210;-73
2020/12/11 09:13:30;;;;;;;45.90;19.10;;;0.30;99.90;;;;;;5032314;28;20175;-74
2020/12/11 09:15:55;;;;;;;32.70;19.50;;;0.30;99.90;;;;;;5032600;28;20174;-73
2020/12/11 09:18:23;;;;;;;36.67;20.30;;;0.20;99.90;;;;;;5032247;28;20206;-73
2020/12/11 09:20:48;;;;;;;32.60;18.47;;;0.20;99.90;;;;;;5032238;28;20187;-73
2020/12/11 09:23:13;;;;;;;33.80;17.27;;;0.20;99.90;;;;;;5032139;28;20429;-72
2020/12/11 09:25:39;;;;;;;34.60;19.20;;;0.10;99.90;;;;;;5032014;28;20609;-71
2020/12/11 09:28:11;;;;;;;44.60;21.17;;;0.10;99.90;;;;;;5032019;28;20696;-73
2020/12/11 09:30:38;;;;;;;38.80;19.67;;;0.20;99.90;;;;;;5032170;28;20168;-73
2020/12/11 09:33:15;;;;;;;46.60;22.57;;;0.20;99.90;;;;;;5032164;28;20402;-73
2020/12/11 09:35:41;;;;;;;39.57;18.43;;;0.30;99.90;;;;;;5032345;28;20436;-74
2020/12/11 09:38:06;;;;;;;36.00;17.87;;;0.30;99.90;;;;;;5031762;28;20454;-75
2020/12/11 09:43:41;;;;;;;33.47;19.00;;;0.20;99.90;;;;;;5032103;28;20170;-76
2020/12/11 09:54:10;;;;;;;41.47;21.00;;;0.40;99.90;;;;;;5031714;28;20777;-74
2020/12/11 09:56:36;;;;;;;34.40;20.57;;;0.40;99.90;;;;;;5031730;28;20446;-74
2020/12/11 09:59:22;;;;;;;38.00;20.47;;;0.40;99.90;;;;;;5031419;28;20973;-74
2020/12/11 10:02:12;;;;;;;35.97;20.17;;;0.50;99.90;;;;;;5031948;28;20213;-74
2020/12/11 10:04:37;;;;;;;46.00;19.40;;;0.50;99.90;;;;;;5031811;28;20460;-74
2020/12/11 10:07:03;;;;;;;34.10;19.00;;;0.50;99.90;;;;;;5031581;28;20410;-74
2020/12/11 10:09:28;;;;;;;41.20;22.47;;;0.60;99.90;;;;;;5031525;28;20211;-74
2020/12/11 10:11:55;;;;;;;34.00;20.40;;;0.60;99.90;;;;;;5035115;28;20176;-74
2020/12/11 10:14:27;;;;;;;33.20;17.87;;;0.70;99.90;;;;;;5035745;28;20631;-74
2020/12/11 10:16:53;;;;;;;40.37;20.10;;;0.60;99.90;;;;;;5035488;28;20781;-75
2020/12/11 10:19:20;;;;;;;39.03;20.80;;;0.50;99.90;;;;;;5035724;28;20544;-74
2020/12/11 10:21:47;;;;;;;44.70;20.50;;;0.50;99.90;;;;;;5035515;28;20431;-74
2020/12/11 10:24:13;;;;;;;38.83;19.90;;;0.50;99.90;;;;;;5035664;28;20398;-73
2020/12/11 10:26:39;;;;;;;36.30;21.00;;;0.60;99.90;;;;;;5035588;28;20769;-75
2020/12/11 10:29:04;;;;;;;45.17;21.90;;;0.70;99.90;;;;;;5035430;28;20421;-74
2020/12/11 10:31:30;;;;;;;38.90;19.40;;;0.60;99.90;;;;;;5034567;28;20418;-75
2020/12/11 10:33:56;;;;;;;41.40;20.67;;;0.50;99.90;;;;;;5035267;28;20511;-74
2020/12/11 10:36:33;;;;;;;41.93;19.90;;;0.50;99.90;;;;;;5035125;28;20640;-74
2020/12/11 10:38:58;;;;;;;37.77;19.90;;;0.40;99.90;;;;;;5035164;28;20826;-74
2020/12/11 10:41:24;;;;;;;43.27;20.40;;;0.40;99.90;;;;;;5035357;28;20405;-72
2020/12/11 10:43:51;;;;;;;34.63;19.27;;;0.40;99.90;;;;;;5035302;28;20582;-74
2020/12/11 10:46:16;;;;;;;34.13;18.93;;;0.40;99.90;;;;;;5035008;28;20175;-72
2020/12/11 10:48:42;;;;;;;40.13;20.37;;;0.30;99.90;;;;;;5035095;28;20437;-73
2020/12/11 10:51:15;;;;;;;34.00;19.07;;;0.40;99.90;;;;;;5035100;28;20589;-73
2020/12/11 10:53:41;;;;;;;41.50;19.00;;;0.40;99.90;;;;;;5035012;28;20168;-73
2020/12/11 10:56:08;;;;;;;43.57;20.53;;;0.40;99.90;;;;;;5035005;28;20414;-73
2020/12/11 10:58:33;;;;;;;38.67;20.80;;;0.40;99.90;;;;;;5034762;28;20457;-73
2020/12/11 11:01:01;;;;;;;43.50;21.63;;;0.50;99.90;;;;;;5035263;28;20820;-73
2020/12/11 11:03:28;;;;;;;38.87;22.47;;;0.50;99.90;;;;;;5033719;28;20186;-73
2020/12/11 11:06:01;;;;;;;40.07;19.60;;;0.50;99.90;;;;;;5035106;28;20964;-73
2020/12/11 11:08:36;;;;;;;34.67;18.93;;;0.40;99.90;;;;;;5034584;28;20945;-73
2020/12/11 11:11:01;;;;;;;34.03;18.47;;;0.30;99.90;;;;;;5034770;28;20401;-73
2020/12/11 11:13:49;;;;;;;38.13;18.63;;;0.40;99.90;;;;;;5034771;28;20411;-73
2020/12/11 11:16:21;;;;;;;41.63;18.73;;;0.40;99.90;;;;;;5034786;28;20203;-73
2020/12/11 11:18:55;;;;;;;35.57;20.00;;;0.30;99.90;;;;;;5034501;28;20464;-73
2020/12/11 11:24:41;;;;;;;45.67;20.87;;;0.50;99.90;;;;;;5014413;28;20494;-73
2020/12/11 11:27:05;;;;;;;37.60;18.93;;;0.50;99.90;;;;;;5014368;28;20411;-73
2020/12/11 11:29:30;;;;;;;39.27;20.47;;;0.50;99.90;;;;;;5014785;28;20938;-73
2020/12/11 11:31:56;;;;;;;37.10;19.17;;;0.50;99.90;;;;;;5015056;28;20407;-73
2020/12/11 11:34:21;;;;;;;38.37;21.27;;;0.60;99.90;;;;;;5034248;28;20203;-73
2020/12/11 11:36:51;;;;;;;43.33;20.77;;;0.60;99.90;;;;;;5034249;28;20679;-73
2020/12/11 11:39:16;;;;;;;42.20;20.10;;;0.60;99.90;;;;;;5034131;28;20632;-74
2020/12/11 11:41:48;;;;;;;39.87;22.70;;;0.60;99.90;;;;;;5034413;28;20407;-73
2020/12/11 11:46:48;;;;;;;37.10;19.13;;;0.60;99.90;;;;;;5034382;28;20402;-73
2020/12/11 11:49:17;;;;;;;33.47;18.97;;;0.70;99.90;;;;;;5034119;28;20425;-73
2020/12/11 11:51:52;;;;;;;37.77;20.00;;;0.60;99.90;;;;;;5034141;28;20406;-73
2020/12/11 11:54:17;;;;;;;34.13;18.00;;;0.70;99.90;;;;;;5034244;28;20893;-73
2020/12/11 11:56:43;;;;;;;36.20;18.13;;;0.80;99.90;;;;;;5033897;28;20433;-73
2020/12/11 11:59:08;;;;;;;32.30;17.37;;;0.70;99.90;;;;;;5033710;28;20278;-73
2020/12/11 12:01:34;;;;;;;38.13;20.33;;;0.80;99.90;;;;;;5034133;28;20628;-77
2020/12/11 12:03:59;;;;;;;35.23;19.40;;;0.80;99.90;;;;;;5034239;28;20643;-73
2020/12/11 12:06:24;;;;;;;33.30;17.63;;;0.80;99.90;;;;;;5036667;28;20175;-73
2020/12/11 12:08:50;;;;;;;33.17;20.07;;;0.90;99.90;;;;;;5053773;28;20210;-75
2020/12/11 12:11:15;;;;;;;36.47;19.33;;;0.90;99.90;;;;;;5053794;28;20663;-73
2020/12/11 12:13:41;;;;;;;38.50;20.33;;;0.90;99.90;;;;;;5053563;28;20175;-72
2020/12/11 12:16:06;;;;;;;36.20;17.80;;;1.00;99.90;;;;;;5054101;28;20182;-73
2020/12/11 12:18:32;;;;;;;35.23;19.80;;;0.90;99.90;;;;;;5053648;28;20209;-71
2020/12/11 12:21:28;;;;;;;31.90;19.83;;;0.90;99.90;;;;;;5041331;28;20597;-73
2020/12/11 12:28:57;;;;;;;43.93;23.10;;;1.00;99.90;;;;;;5033403;28;20505;-74
2020/12/11 12:31:32;;;;;;;49.03;20.63;;;1.00;99.90;;;;;;5033313;28;20414;-74
2020/12/11 12:34:23;;;;;;;33.53;18.30;;;1.10;99.90;;;;;;5031931;28;20902;-74
2020/12/11 12:42:34;;;;;;;37.83;18.90;;;1.20;99.90;;;;;;5033346;28;20406;-74
2020/12/11 12:45:00;;;;;;;39.37;19.23;;;1.20;99.90;;;;;;5033423;28;20167;-74
2020/12/11 12:47:25;;;;;;;37.53;18.13;;;1.30;99.90;;;;;;5032680;28;20410;-75
2020/12/11 12:49:51;;;;;;;36.07;19.17;;;1.30;99.90;;;;;;5033481;28;20200;-75
2020/12/11 12:52:17;;;;;;;34.87;20.20;;;1.20;99.90;;;;;;5032927;28;20625;-75
2020/12/11 12:54:42;;;;;;;42.83;20.73;;;1.20;99.90;;;;;;5033046;28;20190;-74
2020/12/11 12:57:34;;;;;;;40.17;19.70;;;1.30;99.90;;;;;;5032877;28;20505;-75
2020/12/11 13:05:06;;;;;;;38.77;19.27;;;1.50;99.90;;;;;;5032982;28;20207;-74
2020/12/11 13:07:32;;;;;;;43.70;21.60;;;1.50;99.90;;;;;;5032621;28;20168;-74